Informes de METARS cercanos

 

LEAL - Alicante/El Alte, Spain
Distance from station: SSE 60km
Actualización: 27/01/2020 05:00
Despejado
Despejado
 Viento del ONO
Viento: ONO 15 km/h
Temperatura: 10°C
Wind Chill: 8°C
Rocío: 5°C
Humedad: 71%
Barómetro: 1024 hPa
Resumen: Despejado
Visibility: greater than 10 km
2020/01/27 04:00 LEAL 270400Z 30008KT 280V340 CAVOK 10/05 Q1024 NOSIG
LEVC - Valencia (civ/Mi, Spain
Distance from station: NNE 84km
Actualización: 27/01/2020 05:00
Despejado
Despejado
 Viento del O
Viento: O 11 km/h
Temperatura: 7°C
Wind Chill: 5°C
Rocío: 4°C
Humedad: 81%
Barómetro: 1023 hPa
Resumen: Despejado
Visibility: greater than 10 km
2020/01/27 04:00 LEVC 270400Z 28006KT 250V320 CAVOK 07/04 Q1023 NOSIG
 
LEAB - Albacete (civ/Mi, Spain
Distance from station: O 95km
Actualización: 27/01/2020 05:00
Few Clouds
Few Clouds
 Viento del E
Viento: E 6 km/h
Temperatura: -1°C
Rocío: -1°C
Humedad: 100%
Barómetro: 1025 hPa
Clouds: Few Clouds
Visibility: 10 km
Cloud details: Few Clouds 762 m
2020/01/27 04:00 LEAB 270400Z 09003KT 9999 FEW025 M01/M01 Q1025 NOSIG
LERI - Alcantarilla(Sp-, Spain
Distance from station: SSO 100km
Actualización: 26/01/2020 19:00
NOT Current
Few Clouds
Few Clouds
 Viento del ONO
Viento: ONO 9 km/h
Temperatura: 13°C
Rocío: 5°C
Humedad: 59%
Barómetro: 1023 hPa
Clouds: Few Clouds
Visibility: 10 km
Cloud details: Few Clouds 1829 m
2020/01/26 18:00 LERI 261800Z 29005KT 9999 FEW060 13/05 Q1023 NOSIG
 
LELC - San Javier(Mil/C, Spain
Distance from station: S 113km
Actualización: 27/01/2020 05:00
Despejado
Despejado
 Viento del varies
Viento: varies 4 km/h
Temperatura: 7°C
Rocío: 5°C
Humedad: 87%
Barómetro: 1025 hPa
Clouds: Despejado
Visibility: 9 km
2020/01/27 04:00 LELC 270400Z AUTO VRB02KT 9000 NCD 07/05 Q1025
LEIB - Ibiza/Es Codola, Spain
Distance from station: E 186km
Actualización: 27/01/2020 05:00
Despejado
Despejado
 Viento del NO
Viento: NO 7 km/h
Temperatura: 7°C
Wind Chill: 6°C
Rocío: 5°C
Humedad: 87%
Barómetro: 1023 hPa
Resumen: Despejado
Visibility: greater than 10 km
2020/01/27 04:00 LEIB 270400Z AUTO 31004KT CAVOK 07/05 Q1023
 
LEAM - Almeria Airport, Spain
Distance from station: SSO 256km
Actualización: 27/01/2020 05:00
Despejado
Despejado
 Viento del NNO
Viento: NNO 20 km/h
Temperatura: 10°C
Wind Chill: 7°C
Rocío: 4°C
Humedad: 67%
Barómetro: 1025 hPa
Resumen: Despejado
Visibility: greater than 10 km
2020/01/27 04:00 LEAM 270400Z 33011KT CAVOK 10/04 Q1025
LEMD - Madrid/Barajas, Spain
Distance from station: NO 305km
Actualización: 27/01/2020 05:00
Patches of fog, Cubierto
Patches of fog, Cubierto
 Viento del varies
Viento: varies 2 km/h
Temperatura: 2°C
Rocío: 2°C
Humedad: 100%
Barómetro: 1024 hPa
Resumen: Patches of Fog
Clouds: Cubierto
Visibility: 1 km
Cloud details: Cubierto 30 m
2020/01/27 04:00 LEMD 270400Z VRB01KT 0600 R32L/1100D R32R/P2000 BCFG VV001 02/02 Q1024 NOSIG
 
LEPA - Palma De Mallorc, Spain
Distance from station: ENE 313km
Actualización: 27/01/2020 05:00
Few Clouds
Few Clouds
 Viento del calm
Viento: Calma
Temperatura: 5°C
Rocío: 4°C
Humedad: 93%
Barómetro: 1023 hPa
Clouds: Few Clouds
Visibility: 10 km
Cloud details: Few Clouds 610 m
2020/01/27 04:00 LEPA 270400Z 00000KT 9999 FEW020 05/04 Q1023 NOSIG